Time;durP1;ratioP1;P1;durP2;ratioP2;P2;SDS_P1;SDS_P2;PMS_P1;PMS_P2;Temp;Humidity;BMP_temperature;BMP_pressure;BME280_temperature;BME280_humidity;BME280_pressure;Samples;Min_cycle;Max_cycle;Signal;HPM_P1;HPM_P2
2023/09/13 04:06:23;;;;;;;;;16.00;15.67;;;;;;;;5849647;46;10000367;-57
2023/09/13 04:12:27;;;;;;;;;14.00;14.00;;;;;;;;6492730;39;8911;-57
2023/09/13 04:18:36;;;;;;;;;17.33;16.00;;;;;;;;6491626;39;8901;-59
2023/09/13 04:24:39;;;;;;;;;19.67;18.33;;;;;;;;6492609;39;8859;-57
2023/09/13 04:30:42;;;;;;;;;18.67;18.33;;;;;;;;6491659;39;8956;-58
2023/09/13 04:36:48;;;;;;;;;23.00;21.67;;;;;;;;6490848;39;8896;-57
2023/09/13 04:42:58;;;;;;;;;17.00;17.00;;;;;;;;6491946;47;8845;-58
2023/09/13 04:49:10;;;;;;;;;21.67;18.33;;;;;;;;6492815;31;9031;-57
2023/09/13 04:55:13;;;;;;;;;21.00;20.00;;;;;;;;6493701;46;8880;-58
2023/09/13 05:01:21;;;;;;;;;21.67;19.00;;;;;;;;6493492;46;8957;-58
2023/09/13 05:07:33;;;;;;;;;24.67;22.67;;;;;;;;6493799;46;8913;-59
2023/09/13 05:13:39;;;;;;;;;21.33;20.33;;;;;;;;6493580;39;9030;-58
2023/09/13 05:19:53;;;;;;;;;19.33;19.00;;;;;;;;6493689;31;9095;-58
2023/09/13 05:26:02;;;;;;;;;21.33;21.33;;;;;;;;6492865;46;8899;-54
2023/09/13 05:32:05;;;;;;;;;28.00;25.00;;;;;;;;6492949;39;9539;-56
2023/09/13 05:38:08;;;;;;;;;29.00;23.00;;;;;;;;6492423;39;8986;-58
2023/09/13 05:44:10;;;;;;;;;31.00;28.00;;;;;;;;6479124;39;8858;-57
2023/09/13 05:50:12;;;;;;;;;24.00;24.00;;;;;;;;6493134;31;8951;-58
2023/09/13 05:56:15;;;;;;;;;25.67;25.67;;;;;;;;6494062;39;8929;-54
2023/09/13 06:02:18;;;;;;;;;24.67;24.33;;;;;;;;6492772;39;8927;-57
2023/09/13 06:08:21;;;;;;;;;21.00;21.00;;;;;;;;6491886;39;8921;-56
2023/09/13 06:14:24;;;;;;;;;20.67;20.67;;;;;;;;6490422;39;9026;-59
2023/09/13 06:20:27;;;;;;;;;22.00;20.33;;;;;;;;6491059;31;8980;-58
2023/09/13 06:26:30;;;;;;;;;21.00;20.00;;;;;;;;6491148;31;8900;-62
2023/09/13 06:32:34;;;;;;;;;20.00;18.67;;;;;;;;6490046;46;8944;-63
2023/09/13 06:38:44;;;;;;;;;17.33;16.00;;;;;;;;6491659;39;8891;-63
2023/09/13 06:44:46;;;;;;;;;23.67;22.33;;;;;;;;6487385;31;8889;-62
2023/09/13 06:50:50;;;;;;;;;18.00;16.33;;;;;;;;6489061;39;8915;-65
2023/09/13 06:57:13;;;;;;;;;21.33;20.00;;;;;;;;6488163;31;9097;-63
2023/09/13 07:03:21;;;;;;;;;26.33;25.33;;;;;;;;6487534;46;8916;-66
2023/09/13 07:09:45;;;;;;;;;21.50;17.50;;;;;;;;6487183;46;8810;-65
2023/09/13 07:15:52;;;;;;;;;29.67;27.00;;;;;;;;6487750;39;8856;-63
2023/09/13 07:21:55;;;;;;;;;24.33;23.33;;;;;;;;6486669;39;8921;-64
2023/09/13 07:27:59;;;;;;;;;18.75;18.50;;;;;;;;6486510;39;9058;-63
2023/09/13 07:34:03;;;;;;;;;18.00;18.00;;;;;;;;6485683;46;8932;-63
2023/09/13 07:40:06;;;;;;;;;25.75;22.50;;;;;;;;6489280;39;9659;-64
2023/09/13 07:46:12;;;;;;;;;30.75;30.00;;;;;;;;6486640;31;9080;-62
2023/09/13 07:52:15;;;;;;;;;18.25;17.50;;;;;;;;6487831;46;8915;-63
2023/09/13 07:58:19;;;;;;;;;21.25;19.50;;;;;;;;6486203;39;8897;-64
2023/09/13 08:04:22;;;;;;;;;22.00;18.50;;;;;;;;6486653;46;8955;-65
2023/09/13 08:10:24;;;;;;;;;16.75;16.75;;;;;;;;6486276;46;8956;-64
2023/09/13 08:16:27;;;;;;;;;21.50;18.75;;;;;;;;6484358;46;8920;-65
2023/09/13 08:22:32;;;;;;;;;20.50;17.25;;;;;;;;6486298;31;8949;-65
2023/09/13 08:28:45;;;;;;;;;24.00;20.00;;;;;;;;6487538;39;9049;-65
2023/09/13 08:34:50;;;;;;;;;20.25;18.50;;;;;;;;6486939;46;9008;-65
2023/09/13 08:40:54;;;;;;;;;21.50;20.50;;;;;;;;6486901;31;9006;-65
2023/09/13 08:47:04;;;;;;;;;29.50;26.50;;;;;;;;6484660;31;9016;-65
2023/09/13 08:53:14;;;;;;;;;22.00;21.25;;;;;;;;6485645;39;8911;-64
2023/09/13 08:59:17;;;;;;;;;21.75;20.50;;;;;;;;6488131;31;9049;-68
2023/09/13 09:05:24;;;;;;;;;24.50;22.75;;;;;;;;6484487;47;8944;-66
2023/09/13 09:11:35;;;;;;;;;36.75;32.75;;;;;;;;6486582;39;8909;-65
2023/09/13 09:17:41;;;;;;;;;43.50;36.50;;;;;;;;6485920;31;8892;-67
2023/09/13 09:23:46;;;;;;;;;19.50;17.25;;;;;;;;6485008;47;9019;-66
2023/09/13 09:30:03;;;;;;;;;28.25;27.50;;;;;;;;6485696;31;8920;-66
2023/09/13 09:36:13;;;;;;;;;24.75;20.75;;;;;;;;6487864;31;8842;-65
2023/09/13 09:42:16;;;;;;;;;16.75;14.50;;;;;;;;6486953;46;8962;-63
2023/09/13 09:48:20;;;;;;;;;16.25;16.25;;;;;;;;6487743;39;9003;-64
2023/09/13 09:54:24;;;;;;;;;15.25;15.00;;;;;;;;6485172;39;9701;-62
2023/09/13 10:00:28;;;;;;;;;14.00;14.00;;;;;;;;6485337;39;8957;-63
2023/09/13 10:06:31;;;;;;;;;21.75;21.25;;;;;;;;6487453;39;8919;-64
2023/09/13 10:12:44;;;;;;;;;22.25;21.25;;;;;;;;6487141;31;8917;-65
2023/09/13 10:18:52;;;;;;;;;13.50;12.50;;;;;;;;6485714;46;9010;-63
2023/09/13 10:25:03;;;;;;;;;45.75;37.00;;;;;;;;6487892;39;8942;-65
2023/09/13 10:31:16;;;;;;;;;23.00;20.50;;;;;;;;6532467;36;8953;-64
2023/09/13 10:37:47;;;;;;;;;35.25;31.50;;;;;;;;6485600;31;8909;-64
2023/09/13 10:43:52;;;;;;;;;16.75;15.00;;;;;;;;6487697;31;8881;-63
2023/09/13 10:49:56;;;;;;;;;29.50;28.50;;;;;;;;6485573;31;8922;-64
2023/09/13 10:56:00;;;;;;;;;16.00;15.00;;;;;;;;6485799;31;8938;-65
2023/09/13 11:02:05;;;;;;;;;15.75;15.25;;;;;;;;6485911;31;8894;-63
2023/09/13 11:08:12;;;;;;;;;14.25;14.25;;;;;;;;6484254;39;9042;-63
2023/09/13 11:14:18;;;;;;;;;16.50;15.75;;;;;;;;6486169;39;8929;-61
2023/09/13 11:20:22;;;;;;;;;19.75;19.50;;;;;;;;6485914;31;8885;-61
2023/09/13 11:26:55;;;;;;;;;13.50;13.50;;;;;;;;6488003;31;9519;-62
2023/09/13 11:32:59;;;;;;;;;15.75;13.75;;;;;;;;6487599;39;9015;-64
2023/09/13 11:39:05;;;;;;;;;24.25;20.75;;;;;;;;6485643;31;9602;-62
2023/09/13 11:45:09;;;;;;;;;14.50;12.75;;;;;;;;6482108;39;8937;-62
2023/09/13 11:51:34;;;;;;;;;12.50;11.00;;;;;;;;6484241;46;8914;-64
2023/09/13 11:57:55;;;;;;;;;14.25;14.25;;;;;;;;6483878;39;8929;-62
2023/09/13 12:04:07;;;;;;;;;19.75;18.00;;;;;;;;6486296;31;8901;-62
2023/09/13 12:10:37;;;;;;;;;18.25;17.25;;;;;;;;6487182;39;8909;-62
2023/09/13 12:16:47;;;;;;;;;17.50;17.50;;;;;;;;6483088;46;8932;-62
2023/09/13 12:22:51;;;;;;;;;17.50;16.25;;;;;;;;6485361;46;8929;-62
2023/09/13 12:28:56;;;;;;;;;17.75;15.25;;;;;;;;6485641;39;9592;-62
2023/09/13 12:35:05;;;;;;;;;15.75;12.75;;;;;;;;6484908;31;8849;-62
2023/09/13 12:41:19;;;;;;;;;13.25;12.00;;;;;;;;6485251;31;8973;-62
2023/09/13 12:47:23;;;;;;;;;18.67;17.00;;;;;;;;6485222;46;8845;-62
2023/09/13 12:53:30;;;;;;;;;11.25;9.75;;;;;;;;6486582;31;8889;-62
2023/09/13 12:59:43;;;;;;;;;8.50;8.50;;;;;;;;6484147;31;8917;-63
2023/09/13 13:05:49;;;;;;;;;15.25;11.50;;;;;;;;6487105;31;8886;-62
2023/09/13 13:11:57;;;;;;;;;17.75;12.75;;;;;;;;6488639;46;8892;-63
2023/09/13 13:18:00;;;;;;;;;14.00;14.00;;;;;;;;6487613;46;8924;-63
2023/09/13 13:24:04;;;;;;;;;12.50;11.50;;;;;;;;6484399;46;9096;-62
2023/09/13 13:30:09;;;;;;;;;18.25;15.25;;;;;;;;6482060;31;8938;-63
2023/09/13 13:36:12;;;;;;;;;15.00;12.75;;;;;;;;6481848;39;8861;-62
2023/09/13 13:42:15;;;;;;;;;19.25;13.00;;;;;;;;6486490;39;8914;-64
2023/09/13 13:48:18;;;;;;;;;15.50;13.50;;;;;;;;6486552;46;8845;-61
2023/09/13 13:54:23;;;;;;;;;17.50;16.00;;;;;;;;6486650;31;8944;-62
2023/09/13 14:00:27;;;;;;;;;12.00;12.00;;;;;;;;6487907;39;8885;-61
2023/09/13 14:06:30;;;;;;;;;15.75;13.50;;;;;;;;6487985;31;9028;-62
2023/09/13 14:12:34;;;;;;;;;17.75;14.00;;;;;;;;6488058;39;9536;-62
2023/09/13 14:18:37;;;;;;;;;17.50;16.25;;;;;;;;6487553;31;9012;-62
2023/09/13 14:24:40;;;;;;;;;14.50;12.25;;;;;;;;6487504;46;8976;-63
2023/09/13 14:30:47;;;;;;;;;16.50;14.75;;;;;;;;6487985;39;9486;-62
2023/09/13 14:36:50;;;;;;;;;18.50;16.00;;;;;;;;6487624;46;8978;-61
2023/09/13 14:42:54;;;;;;;;;13.00;12.75;;;;;;;;6486356;46;8889;-61
2023/09/13 14:48:56;;;;;;;;;16.00;14.25;;;;;;;;6486310;39;8862;-61
2023/09/13 14:55:00;;;;;;;;;11.75;10.25;;;;;;;;6487068;39;8882;-63
2023/09/13 15:01:04;;;;;;;;;12.00;12.00;;;;;;;;6486440;46;9044;-61
2023/09/13 15:07:07;;;;;;;;;11.75;11.75;;;;;;;;6487224;46;8886;-62
2023/09/13 15:13:09;;;;;;;;;13.75;12.00;;;;;;;;6486904;31;9044;-64
2023/09/13 15:19:12;;;;;;;;;11.50;10.50;;;;;;;;6488061;31;8898;-62
2023/09/13 15:25:15;;;;;;;;;8.50;8.00;;;;;;;;6487959;31;9544;-62
2023/09/13 15:31:17;;;;;;;;;27.25;22.25;;;;;;;;6532418;36;8959;-63
2023/09/13 15:37:20;;;;;;;;;24.00;19.50;;;;;;;;6486191;39;8938;-63
2023/09/13 15:43:23;;;;;;;;;19.50;17.25;;;;;;;;6487563;39;8971;-62
2023/09/13 15:49:26;;;;;;;;;17.00;16.25;;;;;;;;6486337;46;8910;-62
2023/09/13 15:55:30;;;;;;;;;19.00;17.75;;;;;;;;6486455;39;9015;-62
2023/09/13 16:01:36;;;;;;;;;17.00;15.25;;;;;;;;6487293;39;8929;-58
2023/09/13 16:07:38;;;;;;;;;16.00;15.00;;;;;;;;6484431;46;8912;-61
2023/09/13 16:13:41;;;;;;;;;17.00;15.50;;;;;;;;6485957;31;8891;-58
